Lansing, MI (48910)

2:51 AM EST on March 03, 2015 (GMT -0500)
Lansing south (Poxson Park) | Change Station
CLOSE
Current Station
Personal Weather Station
Location: Lansing, MI
Elevation: 866 ft
Nearby Weather Stations
Active Advisory: Winter Weather Advisory

Elev 866 ft 42.70 °N, 84.54 °W | Updated 9 minutes ago

Overcast
Overcast
25.8 °F
Feels Like 26 °F
N
0.0
Wind Variable Wind from ESE
Gusts 0.0 mph

Today
High -- | Low -- °F
--% Chance of Precip.
Yesterday
High -- | Low -- °F
Precip. -- in
7:10 AM 6:29 PM
Waxing Gibbous, 95% visible
Pressure 30.31 in
Visibility 10.0 miles
Clouds Mostly Cloudy 7000 ft
Overcast 9500 ft
Windchill 26 °F
Dew Point 21 °F
Humidity 83%
Rainfall 0.00 in
Snow Depth Not available.
UV 0 out of 12
Pollen .40 out of 12
Air Quality Not available.
Flu Activity Not available.
METAR KLAN 030653Z 19005KT 10SM BKN070 OVC095 M04/M10 A3027 RMK AO2 SLP263 T10391100

More Conditions Fewer Conditions

Pressure 30.31 in
Visibility 10.0 miles
Clouds Mostly Cloudy 7000 ft
Overcast 9500 ft
Windchill 26 °F
Dew Point 21 °F
Humidity 83%
Rainfall 0.00 in
Snow Depth Not available.
UV 0 out of 12
Pollen .40 out of 12
Air Quality Not available.
Flu Activity Not available.
METAR KLAN 030653Z 19005KT 10SM BKN070 OVC095 M04/M10 A3027 RMK AO2 SLP263 T10391100

More Conditions Fewer Conditions

10-Day Weather Forecast

Almanac

Astronomy

Mar. 03, 2015 Rise Set
Actual Time
Civil Twilight
Nautical Twilight
Astronomical Twilight
Moon
Length of Visible Light
Length of Day
Tomorrow will be .
, % of the Moon is Illuminated

Today's Extremes

State Highs State Lows

Community

WunderPhotos

Upload Photos

1,802,073 photos uploaded!

WunderBlogs® & News

Nearby

Air Quality

  Air Quality AQ Index Pollutant
Not available.

Snow Depth

Station Depth Elevation

Earthquake Activity

City Distance Mag. Time & Date
Minimum magnitude displayed is 2.5.

Coastal Water Temperatures

Place Temperature

Nearby Weather Stations

Winter Weather Advisory
Statement as of 9:00 PM EST on March 02, 2015

... Winter Weather Advisory remains in effect from 7 am to 8 PM
EST Tuesday...

Hazardous weather...

* 1 to 3 inches of snow is expected.

* Snow will quickly mix with sleet and freezing rain Tuesday
   morning.

* Ice accumulations of one to two tenths of an inch are
   possible.

* Freezing drizzle is possible Tuesday evening.

Impacts...

* slippery travel is expected due to snow and ice.

* Slower travel speeds anticipated as Road conditions should
   deteriorate.

* Isolated power outages are possible as icing on tree branches
   may result in them falling on power lines.

Precautionary/preparedness actions...

* be prepared for the slippery Road conditions by allowing
   extra time to reach your destination.

* The Michigan Department of Transportation reminds motorists
   to adjust speeds based on the conditions... and to take it
   slow in ice and snow.